createdAt,value
2018-08-08T00:02:17.398Z,99.11
2018-08-08T00:04:45.825Z,99.38
2018-08-08T00:07:14.044Z,99.24
2018-08-08T00:09:42.297Z,98.53
2018-08-08T00:12:10.609Z,97.39
2018-08-08T00:14:38.821Z,98.23
2018-08-08T00:17:06.997Z,98.57
2018-08-08T00:19:35.280Z,97.40
2018-08-08T00:22:03.585Z,97.13
2018-08-08T00:24:31.847Z,98.23
2018-08-08T00:27:00.186Z,99.84
2018-08-08T00:29:28.478Z,100.00
2018-08-08T00:31:57.735Z,98.90
2018-08-08T00:34:25.962Z,97.73
2018-08-08T00:36:54.169Z,98.90
2018-08-08T00:39:22.392Z,100.00
2018-08-08T00:41:50.685Z,100.00
2018-08-08T00:44:18.965Z,100.00
2018-08-08T00:46:47.257Z,100.00
2018-08-08T00:49:15.517Z,100.00
2018-08-08T00:51:43.701Z,99.44
2018-08-08T00:54:11.910Z,100.00
2018-08-08T00:56:40.239Z,100.00
2018-08-08T00:59:08.498Z,99.46
2018-08-08T01:01:36.771Z,98.06
2018-08-08T01:04:05.074Z,96.50
2018-08-08T01:06:33.382Z,99.13
2018-08-08T01:09:01.679Z,100.00
2018-08-08T01:11:29.805Z,99.24
2018-08-08T01:13:58.042Z,100.00
2018-08-08T01:16:26.299Z,99.36
2018-08-08T01:18:54.550Z,99.90
2018-08-08T01:21:22.757Z,99.22
2018-08-08T01:23:50.993Z,99.99
2018-08-08T01:26:19.261Z,100.00
2018-08-08T01:28:47.481Z,100.00
2018-08-08T01:31:15.756Z,100.00
2018-08-08T01:33:43.975Z,99.78
2018-08-08T01:36:12.225Z,99.92
2018-08-08T01:38:40.542Z,100.00
2018-08-08T01:41:08.746Z,100.00
2018-08-08T01:43:36.979Z,100.00
2018-08-08T01:46:06.117Z,100.00
2018-08-08T01:48:34.345Z,100.00
2018-08-08T01:51:02.573Z,100.00
2018-08-08T01:53:30.757Z,100.00
2018-08-08T01:55:59.057Z,99.86
2018-08-08T01:58:27.247Z,100.00
2018-08-08T02:00:55.539Z,100.00
2018-08-08T02:03:23.743Z,100.00
2018-08-08T02:05:55.725Z,100.00
2018-08-08T02:08:23.974Z,100.00
2018-08-08T02:10:52.286Z,99.19
2018-08-08T02:13:20.502Z,100.00
2018-08-08T02:15:48.701Z,99.72
2018-08-08T02:18:16.924Z,99.13
2018-08-08T02:20:45.113Z,99.06
2018-08-08T02:23:13.465Z,98.54
2018-08-08T02:25:41.649Z,98.16
2018-08-08T02:28:10.074Z,99.35
2018-08-08T02:30:38.293Z,100.00
2018-08-08T02:33:06.958Z,99.66
2018-08-08T02:35:35.366Z,99.86
2018-08-08T02:38:03.590Z,100.00
2018-08-08T02:40:31.839Z,98.80
2018-08-08T02:43:00.038Z,99.95
2018-08-08T02:45:29.355Z,99.57
2018-08-08T02:47:57.537Z,99.49
2018-08-08T02:50:25.815Z,98.93
2018-08-08T02:52:54.087Z,97.98
2018-08-08T02:55:22.287Z,98.24
2018-08-08T02:57:50.468Z,98.97
2018-08-08T03:00:20.019Z,98.22
2018-08-08T03:02:48.183Z,99.42
2018-08-08T03:05:16.399Z,98.78
2018-08-08T03:07:45.548Z,99.35
2018-08-08T03:10:15.347Z,99.33
2018-08-08T03:12:43.665Z,99.11
2018-08-08T03:15:13.810Z,97.72
2018-08-08T03:17:42.097Z,99.36
2018-08-08T03:20:11.682Z,99.21
2018-08-08T03:22:39.882Z,99.18
2018-08-08T03:25:10.105Z,97.87
2018-08-08T03:27:38.335Z,96.62
2018-08-08T03:30:09.965Z,97.42
2018-08-08T03:32:38.214Z,98.77
2018-08-08T03:35:06.467Z,99.19
2018-08-08T03:37:34.658Z,100.00
2018-08-08T03:40:02.974Z,100.00
2018-08-08T03:42:31.300Z,100.00
2018-08-08T03:44:59.507Z,100.00
2018-08-08T03:47:27.718Z,99.79
2018-08-08T03:49:56.007Z,97.14
2018-08-08T03:52:24.321Z,97.58
2018-08-08T03:54:52.510Z,96.40
2018-08-08T03:57:20.742Z,97.38
2018-08-08T03:59:48.942Z,97.31
2018-08-08T04:02:17.178Z,95.60
2018-08-08T04:04:45.373Z,98.48
2018-08-08T04:07:13.643Z,98.37
2018-08-08T04:09:41.838Z,98.70
2018-08-08T04:12:10.078Z,95.02
2018-08-08T04:14:38.377Z,94.91
2018-08-08T04:17:11.148Z,97.44
2018-08-08T04:19:39.354Z,95.91
2018-08-08T04:22:08.033Z,95.42
2018-08-08T04:24:36.324Z,94.30
2018-08-08T04:27:04.626Z,95.17
2018-08-08T04:29:32.884Z,93.59
2018-08-08T04:32:01.050Z,92.14
2018-08-08T04:34:29.265Z,89.36
2018-08-08T04:36:57.495Z,90.74
2018-08-08T04:39:25.717Z,92.52
2018-08-08T04:41:53.923Z,90.85
2018-08-08T04:44:22.181Z,91.99
2018-08-08T04:46:50.479Z,93.42
2018-08-08T04:49:18.722Z,92.83
2018-08-08T04:51:47.076Z,91.00
2018-08-08T04:54:15.281Z,90.11
2018-08-08T04:56:43.503Z,91.92
2018-08-08T04:59:11.730Z,92.60
2018-08-08T05:01:40.026Z,93.06
2018-08-08T05:04:08.222Z,92.04
2018-08-08T05:06:36.416Z,91.56
2018-08-08T05:09:08.246Z,92.00
2018-08-08T05:11:36.905Z,94.07
2018-08-08T05:14:05.157Z,92.16
2018-08-08T05:16:33.369Z,93.32
2018-08-08T05:19:01.554Z,93.68
2018-08-08T05:21:29.769Z,94.04
2018-08-08T05:23:57.969Z,92.81
2018-08-08T05:26:26.177Z,94.06
2018-08-08T05:28:54.394Z,90.40
2018-08-08T05:31:22.594Z,91.46
2018-08-08T05:33:50.934Z,92.91
2018-08-08T05:36:19.179Z,89.87
2018-08-08T05:38:47.454Z,90.46
2018-08-08T05:41:15.646Z,91.89
2018-08-08T05:43:43.910Z,91.85
2018-08-08T05:46:12.145Z,90.72
2018-08-08T05:48:40.350Z,92.26
2018-08-08T05:51:08.587Z,90.50
2018-08-08T05:53:36.847Z,90.93
2018-08-08T05:56:05.816Z,92.00
2018-08-08T05:58:34.014Z,95.57
2018-08-08T06:01:02.217Z,90.75
2018-08-08T06:03:30.970Z,91.67
2018-08-08T06:05:59.185Z,100.00
2018-08-08T06:08:27.399Z,96.61
2018-08-08T06:10:55.594Z,98.35
2018-08-08T06:13:23.830Z,98.64
2018-08-08T06:15:52.021Z,100.00
2018-08-08T06:18:20.259Z,100.00
2018-08-08T06:20:48.486Z,100.00
2018-08-08T06:23:16.756Z,100.00
2018-08-08T06:25:44.957Z,99.65
2018-08-08T06:28:13.176Z,99.70
2018-08-08T06:30:41.394Z,99.97
2018-08-08T06:33:09.677Z,100.00
2018-08-08T06:35:37.867Z,100.00
2018-08-08T06:38:06.801Z,100.00
2018-08-08T06:40:34.984Z,100.00
2018-08-08T06:43:03.235Z,94.38
2018-08-08T06:45:31.452Z,94.02
2018-08-08T06:47:59.637Z,91.79
2018-08-08T06:50:27.849Z,91.01
2018-08-08T06:52:56.056Z,92.29
2018-08-08T06:55:24.288Z,92.94
2018-08-08T06:57:52.493Z,91.53
2018-08-08T07:00:23.233Z,92.59
2018-08-08T07:02:51.502Z,90.48
2018-08-08T07:05:19.902Z,89.44
2018-08-08T07:07:48.713Z,89.37
2018-08-08T07:10:16.918Z,88.56
2018-08-08T07:12:45.154Z,86.19
2018-08-08T07:15:14.609Z,84.70
2018-08-08T07:17:42.864Z,86.37
2018-08-08T07:20:12.277Z,83.29
2018-08-08T07:22:40.576Z,83.93
2018-08-08T07:25:11.133Z,82.39
2018-08-08T07:27:39.313Z,80.06
2018-08-08T07:30:10.851Z,79.28
2018-08-08T07:32:39.584Z,80.77
2018-08-08T07:35:08.378Z,78.46
2018-08-08T07:37:36.754Z,78.26
2018-08-08T07:40:07.112Z,76.09
2018-08-08T07:42:35.325Z,75.01
2018-08-08T07:45:03.599Z,72.34
2018-08-08T07:47:31.789Z,71.08
2018-08-08T07:50:00.019Z,69.97
2018-08-08T07:52:28.265Z,71.28
2018-08-08T07:54:56.483Z,72.39
2018-08-08T07:57:24.671Z,71.00
2018-08-08T07:59:52.877Z,71.00
2018-08-08T08:02:21.131Z,70.71
2018-08-08T08:04:49.366Z,70.50
2018-08-08T08:07:17.594Z,68.85
2018-08-08T08:09:45.770Z,70.14
2018-08-08T08:12:13.969Z,69.36
2018-08-08T08:14:42.181Z,69.89
2018-08-08T08:17:10.400Z,68.39
2018-08-08T08:19:38.598Z,67.73
2018-08-08T08:22:06.818Z,68.09
2018-08-08T08:24:35.009Z,68.46
2018-08-08T08:27:03.234Z,67.57
2018-08-08T08:29:31.442Z,66.81
2018-08-08T08:31:59.673Z,67.25
2018-08-08T08:34:27.949Z,65.67
2018-08-08T08:36:56.332Z,65.27
2018-08-08T08:39:24.471Z,65.48
2018-08-08T08:41:52.749Z,64.70
2018-08-08T08:44:20.995Z,64.39
2018-08-08T08:46:49.196Z,64.40
2018-08-08T08:49:17.493Z,64.77
2018-08-08T08:51:45.809Z,62.99
2018-08-08T08:54:14.134Z,64.80
2018-08-08T08:56:42.985Z,64.69
2018-08-08T08:59:11.578Z,61.80
2018-08-08T09:01:40.202Z,62.04
2018-08-08T09:04:08.492Z,61.52
2018-08-08T09:06:36.857Z,61.75
2018-08-08T09:12:40.695Z,59.71
2018-08-08T09:15:10.648Z,59.94
2018-08-08T09:17:39.031Z,59.57
2018-08-08T09:20:07.339Z,59.74
2018-08-08T09:22:36.405Z,58.03
2018-08-08T09:25:04.955Z,55.96
2018-08-08T09:27:33.177Z,54.71
2018-08-08T09:30:07.542Z,54.03
2018-08-08T09:32:36.342Z,53.39
2018-08-08T09:35:04.745Z,54.80
2018-08-08T09:37:33.061Z,51.62
2018-08-08T09:40:01.775Z,51.25
2018-08-08T09:42:30.468Z,50.88
2018-08-08T09:44:58.722Z,51.33
2018-08-08T09:47:26.957Z,50.73
2018-08-08T09:49:55.153Z,49.59
2018-08-08T09:52:23.322Z,50.08
2018-08-08T09:54:51.506Z,49.35
2018-08-08T09:57:19.690Z,51.81
2018-08-08T09:59:47.874Z,50.85
2018-08-08T10:02:21.377Z,49.38
2018-08-08T10:04:49.579Z,48.82
2018-08-08T10:07:17.781Z,49.55
2018-08-08T10:09:46.018Z,48.50
2018-08-08T10:12:14.341Z,48.95
2018-08-08T10:14:42.514Z,49.05
2018-08-08T10:17:10.703Z,49.08
2018-08-08T10:19:38.889Z,49.34
2018-08-08T10:22:07.102Z,48.39
2018-08-08T10:24:35.285Z,49.88
2018-08-08T10:27:03.557Z,49.08
2018-08-08T10:29:31.755Z,48.55
2018-08-08T10:32:00.098Z,48.36
2018-08-08T10:34:28.285Z,46.98
2018-08-08T10:36:56.516Z,48.69
2018-08-08T10:39:24.685Z,47.69
2018-08-08T10:41:52.865Z,46.56
2018-08-08T10:44:21.053Z,47.77
2018-08-08T10:46:49.226Z,47.33
2018-08-08T10:49:17.414Z,46.04
2018-08-08T10:51:45.601Z,48.10
2018-08-08T10:54:13.819Z,46.99
2018-08-08T10:56:42.003Z,46.30
2018-08-08T10:59:10.194Z,45.95
2018-08-08T11:01:38.407Z,46.22
2018-08-08T11:04:06.582Z,45.50
2018-08-08T11:06:34.769Z,46.53
2018-08-08T11:09:03.017Z,45.60
2018-08-08T11:11:31.173Z,44.72
2018-08-08T11:13:59.474Z,45.36
2018-08-08T11:16:27.678Z,46.02
2018-08-08T11:18:55.892Z,46.68
2018-08-08T11:21:24.072Z,44.39
2018-08-08T11:23:52.291Z,44.29
2018-08-08T11:26:20.427Z,45.04
2018-08-08T11:28:48.597Z,45.40
2018-08-08T11:31:16.814Z,45.65
2018-08-08T11:33:45.007Z,45.77
2018-08-08T11:36:13.220Z,45.12
2018-08-08T11:38:41.458Z,44.89
2018-08-08T11:41:09.950Z,45.50
2018-08-08T11:43:38.190Z,45.94
2018-08-08T11:46:06.394Z,46.28
2018-08-08T11:48:34.604Z,45.38
2018-08-08T11:51:02.798Z,44.71
2018-08-08T11:53:31.046Z,44.80
2018-08-08T11:55:59.257Z,44.64
2018-08-08T11:58:28.294Z,43.97
2018-08-08T12:00:56.670Z,44.51
2018-08-08T12:03:25.608Z,44.16
2018-08-08T12:05:53.801Z,42.84
2018-08-08T12:08:22.002Z,42.89
2018-08-08T12:10:50.182Z,43.30
2018-08-08T12:13:18.395Z,42.83
2018-08-08T12:15:46.618Z,43.90
2018-08-08T12:18:14.818Z,43.23
2018-08-08T12:20:42.990Z,41.99
2018-08-08T12:23:11.202Z,41.81
2018-08-08T12:25:39.406Z,41.29
2018-08-08T12:28:07.566Z,39.86
2018-08-08T12:30:35.801Z,39.83
2018-08-08T12:33:04.006Z,41.12
2018-08-08T12:35:32.362Z,41.82
2018-08-08T12:38:00.443Z,41.17
2018-08-08T12:40:28.690Z,43.01
2018-08-08T12:42:56.915Z,43.98
2018-08-08T12:45:25.033Z,43.69
2018-08-08T12:47:53.202Z,42.86
2018-08-08T12:50:21.401Z,44.66
2018-08-08T12:52:49.655Z,44.38
2018-08-08T12:55:17.854Z,45.37
2018-08-08T12:57:46.051Z,44.22
2018-08-08T13:00:14.279Z,44.65
2018-08-08T13:02:42.435Z,44.29
2018-08-08T13:05:10.664Z,53.87
2018-08-08T13:07:38.847Z,62.41
2018-08-08T13:10:07.102Z,79.87
2018-08-08T13:12:35.353Z,100.00
2018-08-08T13:15:03.686Z,100.00
2018-08-08T13:17:31.897Z,100.00
2018-08-08T13:20:00.138Z,100.00
2018-08-08T13:22:28.349Z,100.00
2018-08-08T13:24:56.581Z,100.00
2018-08-08T13:27:24.753Z,100.00
2018-08-08T13:29:52.955Z,100.00
2018-08-08T13:32:21.161Z,100.00
2018-08-08T13:34:49.361Z,100.00
2018-08-08T13:37:17.586Z,100.00
2018-08-08T13:39:45.890Z,100.00
2018-08-08T13:42:14.004Z,100.00
2018-08-08T13:44:42.202Z,100.00
2018-08-08T13:47:10.404Z,100.00
2018-08-08T13:49:38.618Z,100.00
2018-08-08T13:52:07.142Z,100.00
2018-08-08T13:54:35.365Z,100.00
2018-08-08T13:57:03.915Z,100.00
2018-08-08T13:59:32.145Z,100.00
2018-08-08T14:02:00.336Z,100.00
2018-08-08T14:04:28.538Z,100.00
2018-08-08T14:06:56.761Z,100.00
2018-08-08T14:09:24.987Z,100.00
2018-08-08T14:11:53.274Z,100.00
2018-08-08T14:14:21.601Z,100.00
2018-08-08T14:16:49.743Z,100.00
2018-08-08T14:19:17.985Z,100.00
2018-08-08T14:21:46.222Z,100.00
2018-08-08T14:24:14.522Z,100.00
2018-08-08T14:26:49.663Z,100.00
2018-08-08T14:29:17.794Z,100.00
2018-08-08T14:31:46.021Z,100.00
2018-08-08T14:34:14.229Z,100.00
2018-08-08T14:36:42.477Z,100.00
2018-08-08T14:39:11.906Z,98.49
2018-08-08T14:41:40.708Z,94.90
2018-08-08T14:44:09.602Z,88.63
2018-08-08T14:46:38.193Z,100.00
2018-08-08T14:49:06.474Z,89.96
2018-08-08T14:51:34.697Z,94.70
2018-08-08T14:54:02.933Z,86.77
2018-08-08T14:56:31.098Z,91.15
2018-08-08T14:58:59.340Z,85.71
2018-08-08T15:01:27.538Z,92.32
2018-08-08T15:03:55.774Z,87.66
2018-08-08T15:06:23.990Z,81.91
2018-08-08T15:08:52.209Z,88.94
2018-08-08T15:11:20.459Z,87.21
2018-08-08T15:13:48.705Z,80.40
2018-08-08T15:16:16.857Z,77.84
2018-08-08T15:18:45.079Z,71.21
2018-08-08T15:21:13.267Z,81.35
2018-08-08T15:23:41.461Z,81.74
2018-08-08T15:26:09.726Z,73.17
2018-08-08T15:28:38.214Z,69.85
2018-08-08T15:31:06.493Z,74.97
2018-08-08T15:33:34.625Z,77.96
2018-08-08T15:36:02.853Z,73.88
2018-08-08T15:38:31.065Z,71.19
2018-08-08T15:40:59.283Z,69.14
2018-08-08T15:43:27.492Z,68.25
2018-08-08T15:45:55.670Z,66.99
2018-08-08T15:48:23.874Z,69.85
2018-08-08T15:50:52.094Z,69.14
2018-08-08T15:53:20.293Z,74.88
2018-08-08T15:55:48.488Z,65.37
2018-08-08T15:58:16.798Z,66.31
2018-08-08T16:00:45.189Z,69.44
2018-08-08T16:03:21.838Z,70.14
2018-08-08T16:05:50.297Z,66.55
2018-08-08T16:08:18.491Z,71.26
2018-08-08T16:10:46.661Z,64.27
2018-08-08T16:13:14.845Z,61.69
2018-08-08T16:15:43.038Z,60.70
2018-08-08T16:18:11.298Z,56.58
2018-08-08T16:20:39.482Z,57.52
2018-08-08T16:23:07.712Z,62.50
2018-08-08T16:25:35.927Z,63.63
2018-08-08T16:28:04.129Z,60.74
2018-08-08T16:30:32.366Z,62.85
2018-08-08T16:33:00.582Z,67.19
2018-08-08T16:35:28.799Z,65.75
2018-08-08T16:37:56.981Z,58.27
2018-08-08T16:40:25.154Z,61.27
2018-08-08T16:42:53.370Z,59.13
2018-08-08T16:45:21.553Z,64.70
2018-08-08T16:47:49.772Z,63.24
2018-08-08T16:50:17.953Z,65.19
2018-08-08T16:52:46.142Z,62.48
2018-08-08T16:55:14.330Z,67.09
2018-08-08T16:57:42.545Z,63.14
2018-08-08T17:00:12.461Z,66.26
2018-08-08T17:02:40.670Z,62.14
2018-08-08T17:05:09.868Z,63.47
2018-08-08T17:07:38.233Z,63.75
2018-08-08T17:10:07.550Z,56.13
2018-08-08T17:12:36.053Z,56.78
2018-08-08T17:15:05.198Z,59.53
2018-08-08T17:17:33.458Z,65.21
2018-08-08T17:20:01.682Z,63.95
2018-08-08T17:22:29.849Z,66.78
2018-08-08T17:24:58.026Z,69.78
2018-08-08T17:27:26.226Z,59.10
2018-08-08T17:29:54.429Z,69.28
2018-08-08T17:32:22.617Z,70.06
2018-08-08T17:34:50.806Z,72.98
2018-08-08T17:37:18.995Z,65.64
2018-08-08T17:39:47.342Z,71.81
2018-08-08T17:42:15.930Z,72.88
2018-08-08T17:44:44.185Z,74.43
2018-08-08T17:47:12.437Z,68.15
2018-08-08T17:49:40.626Z,65.45
2018-08-08T17:52:08.866Z,68.94
2018-08-08T17:54:37.058Z,66.83
2018-08-08T17:57:05.498Z,63.99
2018-08-08T17:59:33.734Z,67.47
2018-08-08T18:02:01.991Z,64.33
2018-08-08T18:04:30.219Z,71.35
2018-08-08T18:06:58.409Z,72.31
2018-08-08T18:09:26.591Z,72.42
2018-08-08T18:11:54.789Z,73.28
2018-08-08T18:14:23.071Z,76.15
2018-08-08T18:16:51.302Z,77.83
2018-08-08T18:19:19.523Z,73.31
2018-08-08T18:21:47.712Z,66.20
2018-08-08T18:24:16.238Z,72.06
2018-08-08T18:26:44.496Z,68.49
2018-08-08T18:29:12.758Z,70.95
2018-08-08T18:31:41.069Z,74.75
2018-08-08T18:34:09.198Z,75.43
2018-08-08T18:36:37.511Z,77.36
2018-08-08T18:39:08.142Z,78.35
2018-08-08T18:41:36.378Z,79.20
2018-08-08T18:44:04.619Z,75.64
2018-08-08T18:46:32.818Z,73.56
2018-08-08T18:49:01.055Z,76.98
2018-08-08T18:51:29.254Z,79.40
2018-08-08T18:53:57.491Z,81.11
2018-08-08T18:56:25.710Z,82.00
2018-08-08T18:58:53.994Z,81.26
2018-08-08T19:01:22.189Z,80.16
2018-08-08T19:03:50.425Z,82.41
2018-08-08T19:06:18.719Z,81.84
2018-08-08T19:08:46.978Z,80.90
2018-08-08T19:11:15.269Z,83.49
2018-08-08T19:13:43.560Z,84.75
2018-08-08T19:16:11.878Z,84.34
2018-08-08T19:18:40.197Z,80.23
2018-08-08T19:21:08.434Z,81.92
2018-08-08T19:23:36.822Z,82.25
2018-08-08T19:26:05.162Z,81.19
2018-08-08T19:28:33.394Z,82.81
2018-08-08T19:31:01.678Z,83.54
2018-08-08T19:33:29.967Z,82.62
2018-08-08T19:35:58.519Z,85.27
2018-08-08T19:38:26.713Z,82.15
2018-08-08T19:40:54.927Z,81.09
2018-08-08T19:43:23.453Z,80.85
2018-08-08T19:45:51.595Z,79.84
2018-08-08T19:48:19.810Z,80.82
2018-08-08T19:50:55.753Z,84.84
2018-08-08T19:53:25.087Z,86.28
2018-08-08T19:55:53.854Z,83.78
2018-08-08T19:58:22.046Z,84.48
2018-08-08T20:00:50.964Z,87.11
2018-08-08T20:03:20.182Z,85.81
2018-08-08T20:05:48.432Z,87.49
2018-08-08T20:08:23.642Z,87.29
2018-08-08T20:10:52.424Z,87.71
2018-08-08T20:13:20.960Z,86.58
2018-08-08T20:15:50.670Z,87.56
2018-08-08T20:18:18.954Z,85.90
2018-08-08T20:20:47.229Z,85.75
2018-08-08T20:23:15.553Z,88.86
2018-08-08T20:25:44.289Z,91.41
2018-08-08T20:28:12.494Z,88.05
2018-08-08T20:30:40.810Z,86.62
2018-08-08T20:33:09.082Z,85.65
2018-08-08T20:35:37.402Z,84.03
2018-08-08T20:38:05.673Z,87.27
2018-08-08T20:40:33.957Z,86.24
2018-08-08T20:43:02.322Z,88.74
2018-08-08T20:45:30.646Z,90.85
2018-08-08T20:47:58.953Z,91.60
2018-08-08T20:50:27.172Z,88.28
2018-08-08T20:52:55.386Z,91.39
2018-08-08T20:55:23.677Z,93.93
2018-08-08T20:57:51.970Z,89.44
2018-08-08T21:00:20.282Z,88.43
2018-08-08T21:02:48.538Z,89.07
2018-08-08T21:05:16.848Z,88.36
2018-08-08T21:07:45.161Z,87.22
2018-08-08T21:10:13.424Z,87.86
2018-08-08T21:12:41.738Z,88.62
2018-08-08T21:15:10.126Z,87.28
2018-08-08T21:17:38.705Z,87.70
2018-08-08T21:20:06.954Z,87.98
2018-08-08T21:22:35.453Z,83.44
2018-08-08T21:25:03.746Z,81.76
2018-08-08T21:27:32.534Z,81.96
2018-08-08T21:30:00.862Z,82.53
2018-08-08T21:32:29.134Z,83.55
2018-08-08T21:34:57.450Z,83.51
2018-08-08T21:37:25.902Z,83.58
2018-08-08T21:39:54.196Z,81.97
2018-08-08T21:42:22.441Z,80.04
2018-08-08T21:44:50.978Z,80.66
2018-08-08T21:47:19.254Z,80.47
2018-08-08T21:49:47.470Z,80.90
2018-08-08T21:52:15.846Z,79.92
2018-08-08T21:54:55.254Z,78.73
2018-08-08T21:57:34.718Z,80.97
2018-08-08T22:00:14.116Z,81.02
2018-08-08T22:02:53.523Z,83.84
2018-08-08T22:05:33.073Z,84.33
2018-08-08T22:08:12.454Z,83.66
2018-08-08T22:11:52.267Z,84.40
2018-08-08T22:14:31.826Z,87.41
2018-08-08T22:17:11.309Z,88.67
2018-08-08T22:19:46.559Z,89.28
2018-08-08T22:22:14.769Z,89.42
2018-08-08T22:24:43.022Z,89.87
2018-08-08T22:27:12.281Z,91.02
2018-08-08T22:29:40.477Z,88.66
2018-08-08T22:32:08.758Z,88.66
2018-08-08T22:34:37.050Z,88.69
2018-08-08T22:37:05.445Z,89.89
2018-08-08T22:39:33.723Z,91.58
2018-08-08T22:42:02.001Z,92.95
2018-08-08T22:44:30.302Z,90.07
2018-08-08T22:46:58.582Z,85.62
2018-08-08T22:49:26.786Z,88.44
2018-08-08T22:51:55.058Z,87.58
2018-08-08T22:54:23.241Z,84.20
2018-08-08T22:56:51.529Z,81.17
2018-08-08T22:59:19.706Z,82.15
2018-08-08T23:01:47.905Z,81.57
2018-08-08T23:04:16.102Z,82.32
2018-08-08T23:06:44.385Z,84.30
2018-08-08T23:09:12.612Z,86.58
2018-08-08T23:11:40.879Z,86.42
2018-08-08T23:14:09.098Z,86.72
2018-08-08T23:16:37.885Z,88.10
2018-08-08T23:19:06.179Z,88.65
2018-08-08T23:21:34.421Z,92.22
2018-08-08T23:24:02.723Z,91.19
2018-08-08T23:26:31.013Z,90.71
2018-08-08T23:28:59.305Z,92.23
2018-08-08T23:31:27.644Z,95.32
2018-08-08T23:33:55.886Z,93.63
2018-08-08T23:36:24.105Z,93.33
2018-08-08T23:38:52.308Z,94.42
2018-08-08T23:41:20.551Z,93.58
2018-08-08T23:43:48.818Z,94.93
2018-08-08T23:46:17.117Z,96.36
2018-08-08T23:48:45.399Z,97.59
2018-08-08T23:51:13.613Z,98.19
2018-08-08T23:53:41.834Z,99.07
2018-08-08T23:56:10.156Z,98.14
2018-08-08T23:58:38.382Z,95.82
